createdAt,value
2023-02-01T00:00:34.528Z,553.8
2023-02-01T00:01:37.060Z,553.5
2023-02-01T00:02:39.394Z,553.9
2023-02-01T00:03:41.621Z,554
2023-02-01T00:04:43.963Z,553.9
2023-02-01T00:05:46.485Z,554
2023-02-01T00:06:48.823Z,553.4
2023-02-01T00:07:51.360Z,554.3
2023-02-01T00:08:53.620Z,553.5
2023-02-01T00:09:55.595Z,554.3
2023-02-01T00:10:58.100Z,554.8
2023-02-01T00:12:00.359Z,554.5
2023-02-01T00:13:02.900Z,554.7
2023-02-01T00:14:05.153Z,554
2023-02-01T00:15:07.412Z,554.7
2023-02-01T00:16:09.890Z,554.2
2023-02-01T00:17:12.174Z,554.6
2023-02-01T00:18:14.480Z,554.8
2023-02-01T00:19:16.853Z,554.8
2023-02-01T00:20:19.472Z,553.9
2023-02-01T00:21:21.846Z,554.2
2023-02-01T00:22:24.476Z,554.2
2023-02-01T00:23:26.985Z,553.8
2023-02-01T00:24:29.249Z,554.4
2023-02-01T00:25:31.787Z,554
2023-02-01T00:26:34.178Z,554.3
2023-02-01T00:27:36.704Z,553.5
2023-02-01T00:28:39.233Z,554
2023-02-01T00:29:41.504Z,554.1
2023-02-01T00:30:43.857Z,554.2
2023-02-01T00:31:46.117Z,554.6
2023-02-01T00:32:48.659Z,554.9
2023-02-01T00:33:50.933Z,554.7
2023-02-01T00:34:53.481Z,554.3
2023-02-01T00:35:55.410Z,554.8
2023-02-01T00:36:57.669Z,555.5
2023-02-01T00:38:00.303Z,555
2023-02-01T00:39:02.570Z,555.1
2023-02-01T00:40:05.116Z,555.2
2023-02-01T00:41:07.680Z,555.1
2023-02-01T00:42:09.608Z,554.8
2023-02-01T00:43:12.115Z,554.3
2023-02-01T00:44:14.638Z,554.8
2023-02-01T00:45:17.171Z,554.2
2023-02-01T00:46:19.686Z,554.1
2023-02-01T00:47:22.224Z,554.4
2023-02-01T00:48:24.729Z,554
2023-02-01T00:49:26.942Z,553.4
2023-02-01T00:50:29.184Z,553.8
2023-02-01T00:51:31.742Z,554.7
2023-02-01T00:52:33.997Z,554.9
2023-02-01T00:53:36.768Z,555.4
2023-02-01T00:54:39.061Z,555.3
2023-02-01T00:55:41.298Z,555.6
2023-02-01T00:56:43.521Z,555.1
2023-02-01T00:57:46.027Z,555.4
2023-02-01T00:58:48.558Z,555.7
2023-02-01T00:59:51.074Z,555.7
2023-02-01T01:00:53.888Z,556.5
2023-02-01T01:01:56.308Z,556.3
2023-02-01T01:02:58.646Z,556.1
2023-02-01T01:04:01.315Z,556.3
2023-02-01T01:05:03.545Z,555.4
2023-02-01T01:06:05.837Z,555.9
2023-02-01T01:07:07.510Z,556
2023-02-01T01:08:09.758Z,557.1
2023-02-01T01:09:12.403Z,556.2
2023-02-01T01:10:14.628Z,556.1
2023-02-01T01:11:16.874Z,556.4
2023-02-01T01:12:19.389Z,556.5
2023-02-01T01:13:21.918Z,557.1
2023-02-01T01:14:24.143Z,556.4
2023-02-01T01:15:26.643Z,555.9
2023-02-01T01:16:29.721Z,556
2023-02-01T01:17:31.701Z,555.5
2023-02-01T01:18:33.944Z,555.8
2023-02-01T01:19:35.892Z,556
2023-02-01T01:20:38.700Z,556.7
2023-02-01T01:21:41.237Z,556.8
2023-02-01T01:22:43.751Z,556.2
2023-02-01T01:23:46.271Z,556.5
2023-02-01T01:24:48.797Z,556.4
2023-02-01T01:25:51.302Z,555
2023-02-01T01:26:54.282Z,557
2023-02-01T01:27:56.559Z,557.2
2023-02-01T01:28:58.881Z,556.9
2023-02-01T01:30:01.386Z,557
2023-02-01T01:31:04.254Z,557
2023-02-01T01:32:06.564Z,556.9
2023-02-01T01:33:08.544Z,557.2
2023-02-01T01:34:11.086Z,557.2
2023-02-01T01:35:13.040Z,557
2023-02-01T01:36:15.623Z,556.9
2023-02-01T01:37:18.146Z,557
2023-02-01T01:38:20.378Z,557.3
2023-02-01T01:39:22.614Z,557.1
2023-02-01T01:40:25.641Z,557.1
2023-02-01T01:41:28.159Z,556.9
2023-02-01T01:42:30.401Z,557.7
2023-02-01T01:43:32.918Z,557.2
2023-02-01T01:44:35.671Z,557.5
2023-02-01T01:45:37.909Z,557
2023-02-01T01:46:40.856Z,557.5
2023-02-01T01:47:43.138Z,557.3
2023-02-01T01:48:45.636Z,558
2023-02-01T01:49:48.159Z,558.2
2023-02-01T01:50:50.399Z,558.9
2023-02-01T01:51:52.675Z,558.4
2023-02-01T01:52:55.227Z,559
2023-02-01T01:53:57.750Z,559
2023-02-01T01:54:59.984Z,559.3
2023-02-01T01:56:02.657Z,559.7
2023-02-01T01:57:05.190Z,560.4
2023-02-01T01:58:06.914Z,559.8
2023-02-01T01:59:09.430Z,559.7
2023-02-01T02:00:11.655Z,559.7
2023-02-01T02:01:14.491Z,560.4
2023-02-01T02:02:17.191Z,559.5
2023-02-01T02:03:19.748Z,559.9
2023-02-01T02:04:22.435Z,559.9
2023-02-01T02:05:25.057Z,560.4
2023-02-01T02:06:27.570Z,560.6
2023-02-01T02:07:30.119Z,561.3
2023-02-01T02:08:32.650Z,560.8
2023-02-01T02:09:35.201Z,560.9
2023-02-01T02:10:37.728Z,561.2
2023-02-01T02:11:40.374Z,561.6
2023-02-01T02:12:42.902Z,560.8
2023-02-01T02:13:45.485Z,560.7
2023-02-01T02:14:47.987Z,561.2
2023-02-01T02:15:50.497Z,561
2023-02-01T02:16:53.023Z,560.7
2023-02-01T02:17:55.007Z,560.3
2023-02-01T02:18:57.522Z,560.2
2023-02-01T02:19:59.736Z,559.6
2023-02-01T02:21:01.975Z,559.8
2023-02-01T02:22:04.196Z,559.8
2023-02-01T02:23:06.721Z,559.6
2023-02-01T02:24:09.279Z,559.2
2023-02-01T02:25:11.797Z,559.7
2023-02-01T02:26:14.123Z,559.7
2023-02-01T02:27:16.749Z,559
2023-02-01T02:28:19.264Z,559
2023-02-01T02:29:21.789Z,558.4
2023-02-01T02:30:26.053Z,558.7
2023-02-01T02:31:28.785Z,558.8
2023-02-01T02:32:31.006Z,558.9
2023-02-01T02:33:33.232Z,558.9
2023-02-01T02:34:35.472Z,558.2
2023-02-01T02:35:37.982Z,558.4
2023-02-01T02:36:40.511Z,558.6
2023-02-01T02:37:42.773Z,558.7
2023-02-01T02:38:44.731Z,558.5
2023-02-01T02:39:47.023Z,558.7
2023-02-01T02:40:49.255Z,558.6
2023-02-01T02:41:51.784Z,558.8
2023-02-01T02:42:54.096Z,558.5
2023-02-01T02:43:56.600Z,558.3
2023-02-01T02:44:59.129Z,558.4
2023-02-01T02:46:01.850Z,559.3
2023-02-01T02:47:03.834Z,559.7
2023-02-01T02:48:06.343Z,559.3
2023-02-01T02:49:08.612Z,560
2023-02-01T02:50:10.828Z,559.8
2023-02-01T02:51:12.808Z,560
2023-02-01T02:52:15.361Z,560.3
2023-02-01T02:53:17.621Z,560
2023-02-01T02:54:20.161Z,561.1
2023-02-01T02:55:22.436Z,560.3
2023-02-01T02:56:25.008Z,560.4
2023-02-01T02:57:27.015Z,560.7
2023-02-01T02:58:29.759Z,561
2023-02-01T02:59:32.001Z,560.9
2023-02-01T03:00:34.609Z,561.4
2023-02-01T03:01:37.124Z,561.3
2023-02-01T03:02:39.751Z,560.9
2023-02-01T03:03:42.294Z,560.2
2023-02-01T03:04:44.578Z,560.8
2023-02-01T03:05:46.841Z,561.2
2023-02-01T03:06:49.393Z,561.2
2023-02-01T03:07:51.914Z,561.5
2023-02-01T03:08:54.480Z,561.9
2023-02-01T03:09:57.069Z,561.8
2023-02-01T03:10:59.393Z,561.3
2023-02-01T03:12:01.610Z,561.6
2023-02-01T03:13:03.838Z,561.9
2023-02-01T03:14:06.446Z,561.6
2023-02-01T03:15:08.682Z,562.3
2023-02-01T03:16:11.346Z,562.6
2023-02-01T03:17:13.298Z,562.4
2023-02-01T03:18:15.800Z,562.8
2023-02-01T03:19:18.351Z,561.9
2023-02-01T03:20:21.785Z,562.8
2023-02-01T03:21:24.299Z,562.6
2023-02-01T03:22:26.548Z,562.4
2023-02-01T03:23:29.058Z,561.6
2023-02-01T03:24:31.301Z,562.1
2023-02-01T03:25:33.842Z,562.4
2023-02-01T03:26:36.244Z,561.7
2023-02-01T03:27:38.507Z,562.1
2023-02-01T03:28:41.021Z,562.7
2023-02-01T03:29:43.662Z,562.1
2023-02-01T03:30:46.450Z,562.1
2023-02-01T03:31:49.378Z,561.8
2023-02-01T03:32:51.367Z,562.1
2023-02-01T03:33:53.601Z,562.2
2023-02-01T03:34:55.576Z,562.3
2023-02-01T03:35:57.540Z,562.4
2023-02-01T03:37:00.195Z,562.1
2023-02-01T03:38:02.724Z,562.5
2023-02-01T03:39:05.264Z,562.4
2023-02-01T03:40:07.500Z,561.9
2023-02-01T03:41:10.032Z,562.5
2023-02-01T03:42:12.293Z,561.8
2023-02-01T03:43:14.818Z,562.2
2023-02-01T03:44:17.348Z,562.5
2023-02-01T03:45:19.686Z,562.8
2023-02-01T03:46:22.215Z,562.3
2023-02-01T03:47:24.805Z,562.2
2023-02-01T03:48:27.331Z,562.6
2023-02-01T03:49:29.856Z,562.6
2023-02-01T03:50:32.368Z,563.1
2023-02-01T03:51:35.347Z,562.9
2023-02-01T03:52:37.888Z,562.9
2023-02-01T03:53:40.399Z,563.6
2023-02-01T03:54:42.356Z,563.2
2023-02-01T03:55:44.870Z,563.2
2023-02-01T03:56:47.141Z,562.9
2023-02-01T03:57:49.137Z,563.3
2023-02-01T03:58:51.666Z,563.3
2023-02-01T03:59:53.708Z,562.8
2023-02-01T04:00:56.811Z,562.7
2023-02-01T04:01:59.387Z,562.3
2023-02-01T04:03:01.067Z,562.3
2023-02-01T04:04:03.297Z,563.6
2023-02-01T04:05:05.530Z,563.4
2023-02-01T04:06:08.021Z,563.4
2023-02-01T04:07:10.230Z,563.1
2023-02-01T04:08:12.466Z,563.2
2023-02-01T04:09:14.990Z,563.1
2023-02-01T04:11:22.489Z,562.7
2023-02-01T04:12:24.809Z,563
2023-02-01T04:13:27.142Z,563.5
2023-02-01T04:14:29.375Z,562.6
2023-02-01T04:15:31.610Z,562.4
2023-02-01T04:16:34.409Z,562.3
2023-02-01T04:18:38.539Z,562.6
2023-02-01T04:19:41.028Z,563
2023-02-01T04:20:43.276Z,562.8
2023-02-01T04:21:45.770Z,563.1
2023-02-01T04:22:47.720Z,563.3
2023-02-01T04:23:50.256Z,563.1
2023-02-01T04:24:52.468Z,563.6
2023-02-01T04:25:54.703Z,563.9
2023-02-01T04:26:56.935Z,564.8
2023-02-01T04:27:59.460Z,564.7
2023-02-01T04:29:02.032Z,564.4
2023-02-01T04:30:04.183Z,564.2
2023-02-01T04:31:07.542Z,564.1
2023-02-01T04:32:10.205Z,564.1
2023-02-01T04:33:12.700Z,563.8
2023-02-01T04:34:15.208Z,564.6
2023-02-01T04:35:17.144Z,563.6
2023-02-01T04:36:19.654Z,564
2023-02-01T04:37:22.152Z,563.4
2023-02-01T04:38:23.839Z,564.6
2023-02-01T04:39:26.740Z,563.4
2023-02-01T04:40:29.151Z,562.8
2023-02-01T04:41:31.439Z,563.6
2023-02-01T04:42:33.980Z,563.8
2023-02-01T04:43:35.978Z,563.2
2023-02-01T04:44:38.262Z,563.4
2023-02-01T04:45:40.528Z,563.8
2023-02-01T04:46:43.054Z,563.8
2023-02-01T04:47:45.698Z,562.7
2023-02-01T04:48:48.225Z,562.3
2023-02-01T04:49:50.780Z,564
2023-02-01T04:50:53.316Z,563.3
2023-02-01T04:51:55.836Z,564.3
2023-02-01T04:52:58.339Z,563.4
2023-02-01T04:54:00.895Z,563.8
2023-02-01T04:55:03.181Z,564
2023-02-01T04:56:05.678Z,563.7
2023-02-01T04:57:08.199Z,563.8
2023-02-01T04:58:10.754Z,563.1
2023-02-01T04:59:12.990Z,562.8
2023-02-01T05:00:15.515Z,564.1
2023-02-01T05:01:18.286Z,564
2023-02-01T05:02:20.825Z,563.9
2023-02-01T05:03:23.444Z,564.1
2023-02-01T05:04:26.346Z,564
2023-02-01T05:05:28.629Z,564.1
2023-02-01T05:06:31.149Z,563
2023-02-01T05:07:33.135Z,563.4
2023-02-01T05:08:37.218Z,564.3
2023-02-01T05:09:42.442Z,563.7
2023-02-01T05:10:44.970Z,563.7
2023-02-01T05:11:47.461Z,563.8
2023-02-01T05:12:49.686Z,563.5
2023-02-01T05:13:51.643Z,564.1
2023-02-01T05:14:54.164Z,563.4
2023-02-01T05:15:57.061Z,563
2023-02-01T05:16:59.647Z,563.8
2023-02-01T05:18:02.167Z,563.7
2023-02-01T05:19:04.505Z,563.1
2023-02-01T05:20:07.008Z,564.1
2023-02-01T05:21:09.555Z,563.5
2023-02-01T05:22:11.805Z,562.7
2023-02-01T05:23:13.744Z,563.2
2023-02-01T05:24:16.367Z,563.6
2023-02-01T05:25:18.656Z,563.6
2023-02-01T05:26:21.376Z,563.8
2023-02-01T05:27:23.632Z,562.6
2023-02-01T05:28:25.577Z,563
2023-02-01T05:29:28.101Z,563.2
2023-02-01T05:30:30.391Z,562.6
2023-02-01T05:31:33.751Z,563.2
2023-02-01T05:32:36.400Z,563
2023-02-01T05:33:38.903Z,563.6
2023-02-01T05:34:41.509Z,562.8
2023-02-01T05:35:44.014Z,562.5
2023-02-01T05:36:46.556Z,563.2
2023-02-01T05:37:48.812Z,562.5
2023-02-01T05:38:50.769Z,564.6
2023-02-01T05:39:52.468Z,563.7
2023-02-01T05:40:54.986Z,564.2
2023-02-01T05:41:56.961Z,563.9
2023-02-01T05:42:59.211Z,564.7
2023-02-01T05:44:01.483Z,564.7
2023-02-01T05:45:03.807Z,564.9
2023-02-01T05:46:06.306Z,564.5
2023-02-01T05:47:08.583Z,564.6
2023-02-01T05:48:10.830Z,564.8
2023-02-01T05:49:12.793Z,564
2023-02-01T05:50:15.431Z,563.9
2023-02-01T05:51:17.987Z,563.6
2023-02-01T05:52:20.756Z,564.3
2023-02-01T05:53:23.338Z,563.9
2023-02-01T05:54:25.892Z,563.9
2023-02-01T05:55:28.415Z,564
2023-02-01T05:56:30.970Z,562.6
2023-02-01T05:57:33.232Z,563.6
2023-02-01T05:58:35.911Z,563.3
2023-02-01T05:59:38.168Z,563.8
2023-02-01T06:00:40.657Z,562.6
2023-02-01T06:01:42.915Z,564.2
2023-02-01T06:02:45.724Z,564.1
2023-02-01T06:03:48.633Z,563.9
2023-02-01T06:04:50.862Z,563.7
2023-02-01T06:05:53.459Z,564
2023-02-01T06:06:55.683Z,564.1
2023-02-01T06:07:57.945Z,564.1
2023-02-01T06:09:00.187Z,564.2
2023-02-01T06:10:02.715Z,563.7
2023-02-01T06:11:04.988Z,565.3
2023-02-01T06:12:07.575Z,565.6
2023-02-01T06:13:09.815Z,566.6
2023-02-01T06:14:12.091Z,565
2023-02-01T06:15:14.349Z,565
2023-02-01T06:16:17.200Z,563.1
2023-02-01T06:17:19.765Z,564
2023-02-01T06:18:22.027Z,564.2
2023-02-01T06:19:24.521Z,563.4
2023-02-01T06:20:27.252Z,563.9
2023-02-01T06:21:29.971Z,563.2
2023-02-01T06:22:32.533Z,563.5
2023-02-01T06:23:35.113Z,563.2
2023-02-01T06:24:37.677Z,563.8
2023-02-01T06:25:40.228Z,563.9
2023-02-01T06:26:42.804Z,563.7
2023-02-01T06:27:45.386Z,563.8
2023-02-01T06:28:47.401Z,563.6
2023-02-01T06:29:49.916Z,564.1
2023-02-01T06:30:52.673Z,564.1
2023-02-01T06:31:55.524Z,563.6
2023-02-01T06:32:57.769Z,563.6
2023-02-01T06:34:00.243Z,564.2
2023-02-01T06:35:02.521Z,563.8
2023-02-01T06:36:04.760Z,563.9
2023-02-01T06:37:07.264Z,564.2
2023-02-01T06:38:09.232Z,564.6
2023-02-01T06:39:11.470Z,565
2023-02-01T06:40:13.743Z,563.9
2023-02-01T06:41:16.249Z,563.9
2023-02-01T06:42:18.764Z,564.5
2023-02-01T06:43:20.999Z,564.1
2023-02-01T06:44:23.591Z,563.9
2023-02-01T06:45:25.830Z,564
2023-02-01T06:46:28.214Z,564
2023-02-01T06:47:30.518Z,564.2
2023-02-01T06:48:32.766Z,563.5
2023-02-01T06:49:35.203Z,564.2
2023-02-01T06:50:37.714Z,564.6
2023-02-01T06:51:40.229Z,564.3
2023-02-01T06:52:42.849Z,565
2023-02-01T06:53:45.370Z,565.1
2023-02-01T06:54:47.928Z,564.8
2023-02-01T06:55:50.207Z,563.9
2023-02-01T06:56:52.745Z,563.9
2023-02-01T06:57:55.288Z,564.4
2023-02-01T06:58:57.845Z,564.9
2023-02-01T07:00:00.374Z,565
2023-02-01T07:01:03.196Z,563.6
2023-02-01T07:02:06.001Z,564.2
2023-02-01T07:03:08.269Z,564
2023-02-01T07:04:10.772Z,564.2
2023-02-01T07:05:13.324Z,564.3
2023-02-01T07:06:15.568Z,564.1
2023-02-01T07:07:17.808Z,564.4
2023-02-01T07:08:20.189Z,564.3
2023-02-01T07:09:22.422Z,563.7
2023-02-01T07:10:26.037Z,563.8
2023-02-01T07:11:27.724Z,563.4
2023-02-01T07:12:30.261Z,564.6
2023-02-01T07:13:32.481Z,564.9
2023-02-01T07:14:34.771Z,564.2
2023-02-01T07:15:37.325Z,564.9
2023-02-01T07:16:40.105Z,564
2023-02-01T07:17:42.086Z,563.8
2023-02-01T07:18:44.669Z,563.9
2023-02-01T07:19:46.902Z,563.2
2023-02-01T07:20:49.431Z,564.1
2023-02-01T07:21:51.669Z,565.2
2023-02-01T07:22:54.186Z,565.8
2023-02-01T07:23:56.799Z,564.8
2023-02-01T07:24:59.334Z,565.1
2023-02-01T07:26:01.861Z,565.3
2023-02-01T07:27:04.124Z,565.9
2023-02-01T07:28:06.763Z,565.4
2023-02-01T07:29:08.436Z,564.8
2023-02-01T07:30:11.005Z,565.5
2023-02-01T07:31:13.955Z,565.1
2023-02-01T07:32:16.434Z,564.8
2023-02-01T07:33:19.004Z,564.8
2023-02-01T07:34:21.303Z,566
2023-02-01T07:35:23.686Z,565.6
2023-02-01T07:36:26.318Z,565.6
2023-02-01T07:37:28.291Z,565.6
2023-02-01T07:38:30.814Z,565.6
2023-02-01T07:39:33.424Z,565.6
2023-02-01T07:40:35.996Z,565.8
2023-02-01T07:41:38.233Z,565.2
2023-02-01T07:42:40.475Z,565.6
2023-02-01T07:43:43.004Z,565.1
2023-02-01T07:44:45.546Z,566
2023-02-01T07:45:48.208Z,566.8
2023-02-01T07:46:50.463Z,566.9
2023-02-01T07:47:53.008Z,567.6
2023-02-01T07:48:55.543Z,567.4
2023-02-01T07:49:58.074Z,566.8
2023-02-01T07:50:59.488Z,566.4
2023-02-01T07:52:02.114Z,566.5
2023-02-01T07:53:04.408Z,566
2023-02-01T07:54:07.005Z,566.4
2023-02-01T07:55:09.448Z,566.7
2023-02-01T07:56:11.985Z,565.5
2023-02-01T07:57:13.680Z,565.7
2023-02-01T07:58:16.207Z,565.2
2023-02-01T07:59:18.469Z,565.8
2023-02-01T08:00:20.318Z,565.7
2023-02-01T08:01:23.461Z,565.5
2023-02-01T08:02:26.407Z,565.1
2023-02-01T08:03:28.736Z,563.8
2023-02-01T08:04:45.340Z,564.2
2023-02-01T08:05:47.572Z,564.3
2023-02-01T08:06:50.089Z,564.3
2023-02-01T08:07:52.669Z,563.2
2023-02-01T08:08:55.226Z,563.1
2023-02-01T08:09:57.744Z,563
2023-02-01T08:11:00.168Z,562.8
2023-02-01T08:12:02.404Z,563.2
2023-02-01T08:13:04.650Z,561.3
2023-02-01T08:14:06.978Z,562.1
2023-02-01T08:15:08.959Z,562.6
2023-02-01T08:16:11.709Z,562.3
2023-02-01T08:17:13.967Z,562.5
2023-02-01T08:18:16.494Z,562.2
2023-02-01T08:19:19.014Z,562.2
2023-02-01T08:20:23.054Z,562
2023-02-01T08:21:25.896Z,562.1
2023-02-01T08:22:28.174Z,561.7
2023-02-01T08:23:30.155Z,562.3
2023-02-01T08:24:32.394Z,561.3
2023-02-01T08:25:34.663Z,561.7
2023-02-01T08:26:37.436Z,561.8
2023-02-01T08:27:39.973Z,562.7
2023-02-01T08:28:42.519Z,561.8
2023-02-01T08:29:44.744Z,562.2
2023-02-01T08:30:47.266Z,562
2023-02-01T08:31:49.628Z,562.4
2023-02-01T08:32:51.971Z,562.2
2023-02-01T08:33:54.259Z,561.7
2023-02-01T08:34:56.792Z,559.5
2023-02-01T08:35:59.326Z,559.7
2023-02-01T08:37:01.632Z,560.9
2023-02-01T08:38:04.200Z,561.2
2023-02-01T08:39:06.489Z,560.7
2023-02-01T08:40:09.052Z,559.4
2023-02-01T08:41:11.601Z,561.2
2023-02-01T08:42:14.353Z,561.4
2023-02-01T08:43:16.310Z,560.6
2023-02-01T08:44:18.569Z,561.3
2023-02-01T08:45:20.552Z,561
2023-02-01T08:46:23.215Z,559.5
2023-02-01T08:47:25.749Z,561.5
2023-02-01T08:48:28.018Z,562.3
2023-02-01T08:49:30.304Z,561.7
2023-02-01T08:50:32.964Z,560.2
2023-02-01T08:51:35.564Z,563.1
2023-02-01T08:52:39.897Z,562.3
2023-02-01T08:53:42.496Z,561.3
2023-02-01T08:54:45.085Z,562.7
2023-02-01T08:55:47.353Z,563
2023-02-01T08:56:49.923Z,562.1
2023-02-01T08:57:52.637Z,562.2
2023-02-01T08:58:54.596Z,560.3
2023-02-01T08:59:56.848Z,560.3
2023-02-01T09:00:59.652Z,561.4
2023-02-01T09:02:01.648Z,559.3
2023-02-01T09:03:04.177Z,561.3
2023-02-01T09:04:06.837Z,562.2
2023-02-01T09:05:09.224Z,562.2
2023-02-01T09:06:11.772Z,562.4
2023-02-01T09:07:14.035Z,562.4
2023-02-01T09:08:16.038Z,562.8
2023-02-01T09:09:18.577Z,562.1
2023-02-01T09:11:25.859Z,561.7
2023-02-01T09:12:28.408Z,561.9
2023-02-01T09:13:30.756Z,561.5
2023-02-01T09:14:33.336Z,560.2
2023-02-01T09:15:35.364Z,560.6
2023-02-01T09:16:37.362Z,559.4
2023-02-01T09:17:39.936Z,561
2023-02-01T09:19:47.140Z,561
2023-02-01T09:20:49.732Z,559.5
2023-02-01T09:21:52.012Z,559.9
2023-02-01T09:22:54.418Z,559.4
2023-02-01T09:23:57.077Z,558.6
2023-02-01T09:24:59.497Z,559.1
2023-02-01T09:26:02.118Z,559.8
2023-02-01T09:27:05.280Z,559.6
2023-02-01T09:28:07.534Z,561.4
2023-02-01T09:29:09.609Z,560.4
2023-02-01T09:30:11.867Z,560.7
2023-02-01T09:31:14.764Z,560.4
2023-02-01T09:32:17.882Z,561
2023-02-01T09:33:20.185Z,561.3
2023-02-01T09:34:22.409Z,561.1
2023-02-01T09:35:24.937Z,561.2
2023-02-01T09:36:28.820Z,560.8
2023-02-01T09:37:31.377Z,561.4
2023-02-01T09:39:40.572Z,560
2023-02-01T09:40:43.199Z,561.4
2023-02-01T09:41:45.774Z,560.9
2023-02-01T09:42:48.020Z,560.7
2023-02-01T09:43:50.534Z,561.9
2023-02-01T09:44:53.162Z,561.2
2023-02-01T09:45:56.013Z,561.2
2023-02-01T09:46:58.042Z,560.8
2023-02-01T09:48:00.021Z,562.1
2023-02-01T09:49:02.028Z,561.5
2023-02-01T09:50:04.323Z,561.3
2023-02-01T09:51:06.846Z,561.3
2023-02-01T09:52:09.087Z,561.5
2023-02-01T09:53:11.649Z,561.5
2023-02-01T09:54:14.180Z,561
2023-02-01T09:55:16.482Z,561.5
2023-02-01T09:56:18.688Z,561.6
2023-02-01T09:57:20.947Z,560.8
2023-02-01T09:58:23.189Z,562.3
2023-02-01T09:59:25.744Z,561.7
2023-02-01T10:00:29.380Z,559.8
2023-02-01T10:01:31.988Z,561.8
2023-02-01T10:02:34.500Z,560.3
2023-02-01T10:03:37.411Z,561.4
2023-02-01T10:04:39.721Z,560.8
2023-02-01T10:05:42.218Z,560.4
2023-02-01T10:06:43.957Z,559.6
2023-02-01T10:07:45.910Z,558.9
2023-02-01T10:08:48.447Z,559.3
2023-02-01T10:09:50.803Z,560.6
2023-02-01T10:10:53.352Z,560.4
2023-02-01T10:11:55.923Z,560.4
2023-02-01T10:12:58.503Z,560.8
2023-02-01T10:14:00.772Z,560.6
2023-02-01T10:15:03.303Z,560.8
2023-02-01T10:16:06.764Z,559.9
2023-02-01T10:17:08.775Z,560.4
2023-02-01T10:18:11.015Z,560.8
2023-02-01T10:19:13.302Z,559.3
2023-02-01T10:20:15.817Z,559.2
2023-02-01T10:21:18.055Z,559.2
2023-02-01T10:22:20.315Z,559.6
2023-02-01T10:24:28.029Z,559.6
2023-02-01T10:25:30.911Z,558.9
2023-02-01T10:26:33.722Z,559.4
2023-02-01T10:27:36.276Z,559.2
2023-02-01T10:28:38.545Z,557.3
2023-02-01T10:29:40.822Z,558.8
2023-02-01T10:30:43.318Z,559.6
2023-02-01T10:31:46.341Z,559.3
2023-02-01T10:32:48.982Z,560.3
2023-02-01T10:33:50.690Z,559
2023-02-01T10:34:53.190Z,559
2023-02-01T10:35:55.745Z,558.2
2023-02-01T10:36:58.315Z,558
2023-02-01T10:38:00.622Z,558.9
2023-02-01T10:39:03.192Z,558.4
2023-02-01T10:40:05.443Z,557.6
2023-02-01T10:41:08.030Z,559
2023-02-01T10:42:13.094Z,557.6
2023-02-01T10:43:15.370Z,557.6
2023-02-01T10:44:17.801Z,557.3
2023-02-01T10:45:20.343Z,557.8
2023-02-01T10:46:23.077Z,556.3
2023-02-01T10:47:25.770Z,558.1
2023-02-01T10:48:31.120Z,557.3
2023-02-01T10:49:33.706Z,557.7
2023-02-01T10:50:35.940Z,557.6
2023-02-01T10:51:37.878Z,556.5
2023-02-01T10:52:39.587Z,557.3
2023-02-01T10:53:41.804Z,557.4
2023-02-01T10:54:43.891Z,557.9
2023-02-01T10:55:46.403Z,557.6
2023-02-01T10:56:48.640Z,558.2
2023-02-01T10:57:51.194Z,558.4
2023-02-01T10:58:52.889Z,557.7
2023-02-01T10:59:55.153Z,557
2023-02-01T11:00:57.169Z,557.2
2023-02-01T11:02:01.833Z,558.1
2023-02-01T11:03:04.803Z,558
2023-02-01T11:04:07.490Z,556.3
2023-02-01T11:05:10.083Z,556.4
2023-02-01T11:06:12.805Z,557.1
2023-02-01T11:07:15.174Z,557.1
2023-02-01T11:08:17.412Z,557.2
2023-02-01T11:09:19.394Z,556.7
2023-02-01T11:10:23.230Z,557.1
2023-02-01T11:11:25.636Z,555.9
2023-02-01T11:12:27.959Z,556.9
2023-02-01T11:13:30.512Z,557.2
2023-02-01T11:14:32.472Z,556.4
2023-02-01T11:15:35.031Z,556.9
2023-02-01T11:16:37.595Z,556.7
2023-02-01T11:17:39.851Z,556.9
2023-02-01T11:18:42.474Z,556.7
2023-02-01T11:19:44.973Z,556.2
2023-02-01T11:20:47.492Z,557
2023-02-01T11:21:50.015Z,556
2023-02-01T11:22:52.523Z,557.4
2023-02-01T11:23:55.059Z,556.9
2023-02-01T11:24:57.592Z,557
2023-02-01T11:25:59.873Z,556.8
2023-02-01T11:27:02.144Z,556.3
2023-02-01T11:28:04.363Z,556.7
2023-02-01T11:29:06.600Z,557.3
2023-02-01T11:30:08.831Z,556.4
2023-02-01T11:31:12.142Z,556.1
2023-02-01T11:32:14.737Z,556.6
2023-02-01T11:33:16.982Z,556.4
2023-02-01T11:34:20.716Z,557.4
2023-02-01T11:35:25.486Z,556.5
2023-02-01T11:36:28.205Z,556.2
2023-02-01T11:37:30.473Z,556.9
2023-02-01T11:38:32.991Z,556.5
2023-02-01T11:39:35.250Z,555.9
2023-02-01T11:40:37.780Z,555.5
2023-02-01T11:41:40.309Z,555.5
2023-02-01T11:42:42.527Z,555.8
2023-02-01T11:43:45.020Z,554.8
2023-02-01T11:44:47.563Z,555.3
2023-02-01T11:45:49.773Z,555.6
2023-02-01T11:46:52.538Z,554
2023-02-01T11:47:55.099Z,555.4
2023-02-01T11:48:57.646Z,556
2023-02-01T11:50:00.261Z,555
2023-02-01T11:51:05.786Z,555.3
2023-02-01T11:52:09.205Z,555.3
2023-02-01T11:53:11.726Z,555.6
2023-02-01T11:54:14.440Z,554.8
2023-02-01T11:55:16.684Z,556.6
2023-02-01T11:56:18.941Z,555.5
2023-02-01T11:57:21.545Z,555.7
2023-02-01T11:58:23.807Z,556.2
2023-02-01T11:59:26.330Z,556.2
2023-02-01T12:00:28.855Z,556.4
2023-02-01T12:01:31.363Z,557.1
2023-02-01T12:02:33.623Z,556.4
2023-02-01T12:03:36.261Z,557.4
2023-02-01T12:04:38.837Z,556.5
2023-02-01T12:05:41.455Z,557
2023-02-01T12:06:43.688Z,557.5
2023-02-01T12:07:46.214Z,557.3
2023-02-01T12:08:48.592Z,556.8
2023-02-01T12:09:50.537Z,557.8
2023-02-01T12:10:53.034Z,557.6
2023-02-01T12:11:55.537Z,557.8
2023-02-01T12:12:57.506Z,558
2023-02-01T12:13:59.779Z,557.8
2023-02-01T12:15:02.398Z,558.6
2023-02-01T12:16:05.340Z,558.4
2023-02-01T12:17:07.919Z,559.4
2023-02-01T12:18:10.482Z,558.8
2023-02-01T12:19:12.978Z,559.6
2023-02-01T12:20:15.204Z,559.8
2023-02-01T12:21:17.803Z,559.7
2023-02-01T12:22:19.530Z,559.9
2023-02-01T12:23:22.189Z,558.9
2023-02-01T12:24:24.708Z,560.9
2023-02-01T12:25:26.693Z,561.1
2023-02-01T12:26:28.641Z,561.7
2023-02-01T12:27:30.634Z,561.2
2023-02-01T12:28:32.862Z,562.1
2023-02-01T12:29:35.420Z,561
2023-02-01T12:30:37.590Z,562.6
2023-02-01T12:31:40.438Z,560.9
2023-02-01T12:32:42.997Z,561
2023-02-01T12:33:45.011Z,561.8
2023-02-01T12:34:47.020Z,561.5
2023-02-01T12:35:49.570Z,560.5
2023-02-01T12:36:52.239Z,561.1
2023-02-01T12:37:54.553Z,561.6
2023-02-01T12:38:57.094Z,561.1
2023-02-01T12:39:59.636Z,560
2023-02-01T12:41:02.196Z,562.3
2023-02-01T12:42:03.899Z,561.7
2023-02-01T12:43:06.526Z,561.9
2023-02-01T12:44:09.143Z,561.9
2023-02-01T12:45:11.396Z,562.7
2023-02-01T12:46:13.733Z,562.6
2023-02-01T12:47:16.018Z,561.4
2023-02-01T12:48:18.579Z,563.1
2023-02-01T12:49:21.137Z,562.9
2023-02-01T12:50:25.637Z,563.1
2023-02-01T12:51:27.807Z,563.1
2023-02-01T12:52:30.207Z,562.9
2023-02-01T12:53:32.749Z,563.5
2023-02-01T12:54:35.031Z,563.3
2023-02-01T12:55:37.084Z,563.3
2023-02-01T12:56:39.734Z,563.3
2023-02-01T12:57:41.747Z,564.2
2023-02-01T12:58:44.313Z,563.7
2023-02-01T12:59:46.855Z,563.6
2023-02-01T13:00:49.484Z,563.5
2023-02-01T13:01:52.054Z,564.2
2023-02-01T13:02:54.331Z,563.5
2023-02-01T13:03:57.049Z,564.2
2023-02-01T13:04:59.650Z,563.5
2023-02-01T13:06:01.981Z,563.8
2023-02-01T13:07:03.649Z,564.7
2023-02-01T13:08:06.265Z,564.8
2023-02-01T13:09:08.878Z,564.1
2023-02-01T13:10:11.108Z,564.9
2023-02-01T13:11:13.090Z,564.9
2023-02-01T13:12:15.742Z,564.3
2023-02-01T13:13:18.337Z,564
2023-02-01T13:14:20.612Z,565
2023-02-01T13:15:22.971Z,564.2
2023-02-01T13:16:25.188Z,564.6
2023-02-01T13:17:27.763Z,565.4
2023-02-01T13:18:30.030Z,564.5
2023-02-01T13:19:32.577Z,565.3
2023-02-01T13:20:34.849Z,564.6
2023-02-01T13:21:36.859Z,564.9
2023-02-01T13:22:39.121Z,564.7
2023-02-01T13:23:41.516Z,565.2
2023-02-01T13:24:44.101Z,564.7
2023-02-01T13:25:46.417Z,565.7
2023-02-01T13:26:49.250Z,565.5
2023-02-01T13:27:51.809Z,565.2
2023-02-01T13:28:54.041Z,565.5
2023-02-01T13:29:56.294Z,566.2
2023-02-01T13:30:59.289Z,566
2023-02-01T13:32:02.133Z,566.3
2023-02-01T13:34:09.586Z,566.1
2023-02-01T13:35:12.073Z,566.4
2023-02-01T13:36:15.515Z,566.2
2023-02-01T13:37:18.061Z,566.6
2023-02-01T13:38:20.613Z,566.7